Time;durP1;ratioP1;P1;durP2;ratioP2;P2;SDS_P1;SDS_P2;PMS_P1;PMS_P2;Temp;Humidity;BMP_temperature;BMP_pressure;BME280_temperature;BME280_humidity;BME280_pressure;Samples;Min_cycle;Max_cycle;Signal;HPM_P1;HPM_P2
2021/10/25 00:01:28;;;;;;;3.13;2.90;;;2.40;99.90;;;;;;5042767;28;20461;-73
2021/10/25 00:03:54;;;;;;;4.23;2.40;;;2.40;99.90;;;;;;5043690;28;20460;-73
2021/10/25 00:06:19;;;;;;;3.07;2.73;;;2.40;99.90;;;;;;5043272;28;20444;-73
2021/10/25 00:08:46;;;;;;;3.30;3.00;;;2.40;99.90;;;;;;5041031;28;20586;-73
2021/10/25 00:11:13;;;;;;;3.73;3.43;;;2.40;99.90;;;;;;5044651;28;20189;-73
2021/10/25 00:13:42;;;;;;;5.53;2.70;;;2.40;99.90;;;;;;5043276;28;20490;-73
2021/10/25 00:16:07;;;;;;;2.90;2.80;;;2.40;99.90;;;;;;5047770;28;20525;-73
2021/10/25 00:18:34;;;;;;;2.27;2.07;;;2.40;99.90;;;;;;5050000;28;20466;-73
2021/10/25 00:21:00;;;;;;;3.30;3.00;;;2.40;99.90;;;;;;5050460;28;20203;-73
2021/10/25 00:23:26;;;;;;;3.47;2.83;;;2.50;99.90;;;;;;5050826;28;20440;-73
2021/10/25 00:25:52;;;;;;;2.80;2.60;;;2.50;99.90;;;;;;5048001;28;20434;-74
2021/10/25 00:28:18;;;;;;;2.87;2.57;;;2.50;99.90;;;;;;5050861;28;20215;-73
2021/10/25 00:30:43;;;;;;;3.83;2.97;;;2.50;99.90;;;;;;5049419;28;20445;-73
2021/10/25 00:33:09;;;;;;;2.53;2.43;;;2.60;99.90;;;;;;5049214;28;20187;-73
2021/10/25 00:35:35;;;;;;;4.17;2.67;;;2.60;99.90;;;;;;5047808;28;20189;-73
2021/10/25 00:38:01;;;;;;;3.43;3.07;;;2.60;99.90;;;;;;5048380;28;20223;-73
2021/10/25 00:40:27;;;;;;;3.03;2.60;;;2.60;99.90;;;;;;5051336;28;20204;-74
2021/10/25 00:42:52;;;;;;;4.20;3.20;;;2.60;99.90;;;;;;5048711;28;20422;-74
2021/10/25 00:45:18;;;;;;;3.77;3.37;;;2.60;99.90;;;;;;5049596;28;20178;-74
2021/10/25 00:47:44;;;;;;;3.60;3.17;;;2.60;99.90;;;;;;5047358;28;20188;-74
2021/10/25 00:50:10;;;;;;;3.03;2.83;;;2.60;99.90;;;;;;5047821;28;20585;-74
2021/10/25 00:52:38;;;;;;;3.90;3.40;;;2.60;99.90;;;;;;5048010;28;20438;-74
2021/10/25 00:55:05;;;;;;;2.63;2.43;;;2.60;99.90;;;;;;5045692;28;20202;-74
2021/10/25 00:57:31;;;;;;;2.83;2.63;;;2.60;99.90;;;;;;5049695;28;20429;-74
2021/10/25 00:59:57;;;;;;;4.20;3.50;;;2.60;99.90;;;;;;5050494;28;20489;-74
2021/10/25 01:02:24;;;;;;;3.20;2.90;;;2.50;99.90;;;;;;5047506;28;20446;-74
2021/10/25 01:04:50;;;;;;;2.97;2.70;;;2.50;99.90;;;;;;5049070;28;20505;-74
2021/10/25 01:07:16;;;;;;;3.37;3.17;;;2.50;99.90;;;;;;5049546;28;20437;-74
2021/10/25 01:09:43;;;;;;;3.13;2.93;;;2.40;99.90;;;;;;5049060;28;20220;-74
2021/10/25 01:12:09;;;;;;;4.00;2.93;;;2.40;99.90;;;;;;5048595;28;20187;-74
2021/10/25 01:14:34;;;;;;;2.87;2.67;;;2.40;99.90;;;;;;5051251;28;20457;-74
2021/10/25 01:17:00;;;;;;;3.70;2.80;;;2.30;99.90;;;;;;5049804;28;20435;-74
2021/10/25 01:19:26;;;;;;;3.23;2.97;;;2.30;99.90;;;;;;5049073;28;20236;-74
2021/10/25 01:21:52;;;;;;;2.97;2.60;;;2.30;99.90;;;;;;5048871;28;20436;-74
2021/10/25 01:24:17;;;;;;;2.53;2.33;;;2.20;99.90;;;;;;5047962;28;20195;-74
2021/10/25 01:26:43;;;;;;;3.30;3.00;;;2.10;99.90;;;;;;5050364;28;20181;-74
2021/10/25 01:29:09;;;;;;;2.90;2.67;;;2.10;99.90;;;;;;5047953;28;20410;-74
2021/10/25 01:31:35;;;;;;;3.60;2.80;;;2.10;99.90;;;;;;5050791;28;20218;-74
2021/10/25 01:34:02;;;;;;;3.60;3.30;;;2.00;99.90;;;;;;5049144;28;20174;-74
2021/10/25 01:36:27;;;;;;;3.27;3.00;;;2.00;99.90;;;;;;5047365;28;20431;-74
2021/10/25 01:38:53;;;;;;;3.53;3.23;;;2.00;99.90;;;;;;5049334;28;20433;-74
2021/10/25 01:41:19;;;;;;;3.47;2.80;;;2.00;99.90;;;;;;5048941;28;20203;-74
2021/10/25 01:43:45;;;;;;;3.43;3.13;;;2.00;99.90;;;;;;5047270;28;20238;-74
2021/10/25 01:46:11;;;;;;;4.50;2.77;;;2.00;99.90;;;;;;5049376;28;20204;-74
2021/10/25 01:48:37;;;;;;;3.43;3.07;;;2.00;99.90;;;;;;5045535;28;20169;-74
2021/10/25 01:51:03;;;;;;;3.47;3.17;;;1.90;99.90;;;;;;5048301;28;20433;-74
2021/10/25 01:53:30;;;;;;;3.37;3.07;;;1.90;99.90;;;;;;5048281;28;20466;-74
2021/10/25 01:55:57;;;;;;;2.63;2.43;;;1.90;99.90;;;;;;5047355;28;20443;-74
2021/10/25 01:58:23;;;;;;;3.43;2.63;;;1.90;99.90;;;;;;5048364;28;20897;-74
2021/10/25 02:00:49;;;;;;;5.93;3.00;;;1.80;99.90;;;;;;5046746;28;20478;-74
2021/10/25 02:03:15;;;;;;;2.70;2.50;;;1.80;99.90;;;;;;5047845;28;20234;-74
2021/10/25 02:05:40;;;;;;;3.10;2.90;;;1.80;99.90;;;;;;5050982;28;20195;-74
2021/10/25 02:08:06;;;;;;;3.50;3.20;;;1.80;99.90;;;;;;5053193;28;20166;-74
2021/10/25 02:10:32;;;;;;;4.70;3.27;;;1.80;99.90;;;;;;5055188;28;20185;-74
2021/10/25 02:12:57;;;;;;;3.70;3.40;;;1.70;99.90;;;;;;5050328;28;20181;-74
2021/10/25 02:15:24;;;;;;;3.07;2.87;;;1.70;99.90;;;;;;5050387;28;20188;-74
2021/10/25 02:17:49;;;;;;;3.67;3.37;;;1.70;99.90;;;;;;5051897;28;20174;-74
2021/10/25 02:20:15;;;;;;;2.83;2.63;;;1.70;99.90;;;;;;5050106;28;20452;-74
2021/10/25 02:22:41;;;;;;;3.47;2.97;;;1.70;99.90;;;;;;5051573;28;20179;-74
2021/10/25 02:25:08;;;;;;;2.90;2.80;;;1.70;99.90;;;;;;5053111;28;20162;-74
2021/10/25 02:27:33;;;;;;;3.00;2.77;;;1.70;99.90;;;;;;5047785;28;20427;-74
2021/10/25 02:29:59;;;;;;;4.27;3.27;;;1.70;99.90;;;;;;5051055;28;20453;-74
2021/10/25 02:32:24;;;;;;;3.77;3.23;;;1.60;99.90;;;;;;5049630;28;20181;-74
2021/10/25 02:34:51;;;;;;;3.40;3.10;;;1.70;99.90;;;;;;5051684;28;20256;-74
2021/10/25 02:37:17;;;;;;;4.67;3.00;;;1.60;99.90;;;;;;5055192;28;20635;-74
2021/10/25 02:39:45;;;;;;;5.43;3.37;;;1.70;99.90;;;;;;5050420;28;20459;-74
2021/10/25 02:42:11;;;;;;;2.73;2.53;;;1.70;99.90;;;;;;5048425;28;20441;-74
2021/10/25 02:44:37;;;;;;;3.60;3.17;;;1.70;99.90;;;;;;5061540;28;20954;-74
2021/10/25 02:47:03;;;;;;;3.33;3.13;;;1.60;99.90;;;;;;5057277;28;20446;-75
2021/10/25 02:49:30;;;;;;;3.00;2.80;;;1.60;99.90;;;;;;5058736;28;20431;-75
2021/10/25 02:51:56;;;;;;;3.73;3.13;;;1.50;99.90;;;;;;5060228;28;20451;-75
2021/10/25 02:54:24;;;;;;;3.53;3.23;;;1.50;99.90;;;;;;5061610;28;20428;-75
2021/10/25 02:56:51;;;;;;;2.77;2.57;;;1.50;99.90;;;;;;5058381;28;20194;-75
2021/10/25 02:59:17;;;;;;;3.10;2.90;;;1.50;99.90;;;;;;5060379;28;20432;-75
2021/10/25 03:01:43;;;;;;;3.60;3.40;;;1.40;99.90;;;;;;5059357;28;20447;-75
2021/10/25 03:04:09;;;;;;;3.63;3.33;;;1.40;99.90;;;;;;5060796;28;20490;-75
2021/10/25 03:06:35;;;;;;;2.90;2.70;;;1.40;99.90;;;;;;5063277;28;20184;-75
2021/10/25 03:09:00;;;;;;;4.60;3.27;;;1.40;99.90;;;;;;5063143;28;20194;-74
2021/10/25 03:11:27;;;;;;;2.70;2.50;;;1.40;99.90;;;;;;5064235;28;20444;-74
2021/10/25 03:13:53;;;;;;;2.70;2.50;;;1.40;99.90;;;;;;5065903;28;20164;-74
2021/10/25 03:16:20;;;;;;;4.83;3.07;;;1.30;99.90;;;;;;5053335;28;20472;-74
2021/10/25 03:18:46;;;;;;;3.40;3.20;;;1.30;99.90;;;;;;5052138;28;20518;-74
2021/10/25 03:21:12;;;;;;;3.07;2.87;;;1.30;99.90;;;;;;5049749;28;20492;-74
2021/10/25 03:23:39;;;;;;;3.07;2.93;;;1.30;99.90;;;;;;5051233;28;20465;-74
2021/10/25 03:26:05;;;;;;;3.77;2.67;;;1.30;99.90;;;;;;5051203;28;20207;-75
2021/10/25 03:28:30;;;;;;;3.10;2.80;;;1.30;99.90;;;;;;5054282;28;20436;-74
2021/10/25 03:30:57;;;;;;;3.33;3.10;;;1.30;99.90;;;;;;5053658;28;20194;-74
2021/10/25 03:33:22;;;;;;;3.10;2.83;;;1.30;99.90;;;;;;5050152;28;20530;-75
2021/10/25 03:35:49;;;;;;;3.50;2.90;;;1.30;99.90;;;;;;5052472;28;20479;-74
2021/10/25 03:38:16;;;;;;;3.00;2.80;;;1.20;99.90;;;;;;5051515;28;20240;-74
2021/10/25 03:40:45;;;;;;;3.43;3.13;;;1.30;99.90;;;;;;5053771;28;20464;-74
2021/10/25 03:43:13;;;;;;;3.67;2.90;;;1.30;99.90;;;;;;5050838;28;20428;-74
2021/10/25 03:48:17;;;;;;;2.80;2.60;;;1.20;99.90;;;;;;5052136;28;20439;-74
2021/10/25 03:50:44;;;;;;;2.90;2.63;;;1.30;99.90;;;;;;5050546;28;20512;-74
2021/10/25 03:53:30;;;;;;;3.00;2.80;;;1.20;99.90;;;;;;5049986;28;20445;-74
2021/10/25 04:01:34;;;;;;;3.27;3.00;;;1.20;99.90;;;;;;5048868;28;20517;-75
2021/10/25 04:26:11;;;;;;;3.93;3.63;;;1.00;99.90;;;;;;5047846;28;20431;-74
2021/10/25 04:28:38;;;;;;;2.77;2.50;;;1.00;99.90;;;;;;5045599;28;20425;-75
2021/10/25 04:31:04;;;;;;;4.07;3.33;;;1.00;99.90;;;;;;5048447;28;20485;-74
2021/10/25 04:33:30;;;;;;;3.47;3.20;;;0.90;99.90;;;;;;5049762;28;20436;-75
2021/10/25 04:35:56;;;;;;;3.83;2.90;;;0.90;99.90;;;;;;5046926;28;20271;-74
2021/10/25 04:38:21;;;;;;;3.20;3.07;;;1.00;99.90;;;;;;5048586;28;20185;-74
2021/10/25 04:40:47;;;;;;;3.40;3.10;;;1.00;99.90;;;;;;5048009;28;20486;-74
2021/10/25 04:43:14;;;;;;;6.63;3.87;;;1.00;99.90;;;;;;5045616;28;20173;-75
2021/10/25 04:45:41;;;;;;;3.57;3.27;;;1.00;99.90;;;;;;5045697;28;20180;-74
2021/10/25 04:48:08;;;;;;;3.40;3.20;;;1.00;99.90;;;;;;5045328;28;20500;-74
2021/10/25 04:50:34;;;;;;;3.80;3.50;;;0.90;99.90;;;;;;5047039;28;20442;-74
2021/10/25 04:52:59;;;;;;;3.40;3.20;;;0.90;99.90;;;;;;5046468;28;20427;-74
2021/10/25 04:55:25;;;;;;;8.17;4.70;;;0.90;99.90;;;;;;5047603;28;20514;-74
2021/10/25 04:57:51;;;;;;;3.20;2.90;;;0.90;99.90;;;;;;5045798;28;20185;-74
2021/10/25 05:00:16;;;;;;;4.33;3.93;;;0.90;99.90;;;;;;5043424;28;20215;-74
2021/10/25 05:02:42;;;;;;;3.60;3.30;;;0.90;99.90;;;;;;5042971;28;20212;-74
2021/10/25 05:05:08;;;;;;;4.10;3.80;;;0.90;99.90;;;;;;5037471;28;20233;-74
2021/10/25 05:07:34;;;;;;;5.67;3.10;;;0.90;99.90;;;;;;5041293;28;20185;-74
2021/10/25 05:10:02;;;;;;;4.03;3.60;;;0.90;99.90;;;;;;5042267;28;20531;-74
2021/10/25 05:12:28;;;;;;;4.07;3.63;;;0.90;99.90;;;;;;5040317;28;20248;-74
2021/10/25 05:14:53;;;;;;;3.90;3.50;;;0.90;99.90;;;;;;5043949;28;20885;-74
2021/10/25 05:17:19;;;;;;;3.90;3.63;;;0.90;99.90;;;;;;5042956;28;20442;-74
2021/10/25 05:19:45;;;;;;;4.23;3.87;;;0.90;99.90;;;;;;5039336;28;20300;-74
2021/10/25 05:22:11;;;;;;;3.60;2.70;;;0.90;99.90;;;;;;5041303;28;20847;-74
2021/10/25 05:24:41;;;;;;;4.43;4.03;;;0.90;99.90;;;;;;5041541;28;20975;-74
2021/10/25 05:27:07;;;;;;;5.00;3.83;;;0.80;99.90;;;;;;5041743;28;20431;-74
2021/10/25 05:29:33;;;;;;;3.63;3.33;;;0.80;99.90;;;;;;5042794;28;20843;-74
2021/10/25 05:31:59;;;;;;;3.90;3.60;;;0.80;99.90;;;;;;5040725;28;20430;-75
2021/10/25 05:34:25;;;;;;;4.40;3.77;;;0.80;99.90;;;;;;5044770;28;20789;-74
2021/10/25 05:36:51;;;;;;;3.23;2.93;;;0.80;99.90;;;;;;5040412;28;20483;-74
2021/10/25 05:39:16;;;;;;;4.23;3.90;;;0.80;99.90;;;;;;5041482;28;20174;-74
2021/10/25 05:41:44;;;;;;;3.30;3.10;;;0.80;99.90;;;;;;5040079;28;20760;-74
2021/10/25 05:44:11;;;;;;;4.00;3.60;;;0.80;99.90;;;;;;5040914;28;20180;-74
2021/10/25 05:46:37;;;;;;;4.40;4.00;;;0.80;99.90;;;;;;5038745;28;20430;-74
2021/10/25 05:49:03;;;;;;;3.57;3.30;;;0.80;99.90;;;;;;5041597;28;20490;-74
2021/10/25 05:51:30;;;;;;;3.53;3.33;;;0.80;99.90;;;;;;5040712;28;20845;-74
2021/10/25 05:53:58;;;;;;;4.37;3.40;;;0.80;99.90;;;;;;5038881;28;20434;-74
2021/10/25 05:56:25;;;;;;;3.47;3.17;;;0.70;99.90;;;;;;5042122;28;20440;-74
2021/10/25 05:58:51;;;;;;;3.37;3.17;;;0.70;99.90;;;;;;5039704;28;20434;-74
2021/10/25 06:01:19;;;;;;;5.37;3.60;;;0.70;99.90;;;;;;5039851;28;20459;-75
2021/10/25 06:03:47;;;;;;;4.03;3.23;;;0.70;99.90;;;;;;5041352;28;20439;-74
2021/10/25 06:06:14;;;;;;;3.50;3.20;;;0.70;99.90;;;;;;5038138;28;20444;-74
2021/10/25 06:08:40;;;;;;;4.80;3.63;;;0.80;99.90;;;;;;5039239;28;20430;-74
2021/10/25 06:11:09;;;;;;;6.13;4.13;;;0.70;99.90;;;;;;5043888;28;20427;-74
2021/10/25 06:13:40;;;;;;;4.40;4.00;;;0.80;99.90;;;;;;5045320;28;20442;-75
2021/10/25 06:16:13;;;;;;;5.20;4.27;;;0.80;99.90;;;;;;5043387;28;20415;-75
2021/10/25 06:18:39;;;;;;;3.43;3.13;;;0.80;99.90;;;;;;5038155;28;20429;-75
2021/10/25 06:21:06;;;;;;;3.43;3.23;;;0.80;99.90;;;;;;5043678;28;20558;-75
2021/10/25 06:23:33;;;;;;;4.07;3.87;;;0.80;99.90;;;;;;5043569;28;20425;-75
2021/10/25 06:25:59;;;;;;;5.30;4.10;;;0.90;99.90;;;;;;5042995;28;20482;-75
2021/10/25 06:28:26;;;;;;;4.13;3.90;;;0.90;99.90;;;;;;5039554;28;20760;-75
2021/10/25 06:31:04;;;;;;;4.03;3.73;;;0.90;99.90;;;;;;5039776;28;20520;-75
2021/10/25 06:33:36;;;;;;;5.00;4.60;;;0.90;99.90;;;;;;5041227;28;20551;-75
2021/10/25 06:36:04;;;;;;;6.50;3.80;;;0.90;99.90;;;;;;5046661;28;20427;-75
2021/10/25 06:38:35;;;;;;;5.20;4.70;;;0.80;99.90;;;;;;5045112;28;20927;-75
2021/10/25 06:41:01;;;;;;;9.63;5.10;;;0.90;99.90;;;;;;5040930;28;20971;-75
2021/10/25 06:43:28;;;;;;;8.73;5.63;;;0.90;99.90;;;;;;5041495;28;20425;-75
2021/10/25 06:45:55;;;;;;;8.50;4.90;;;0.90;99.90;;;;;;5036893;28;20427;-75
2021/10/25 06:48:21;;;;;;;5.20;4.70;;;0.90;99.90;;;;;;5039021;28;20929;-75
2021/10/25 06:50:47;;;;;;;7.30;4.37;;;0.90;99.90;;;;;;5038580;28;20502;-75
2021/10/25 06:53:14;;;;;;;6.20;5.10;;;1.00;99.90;;;;;;5040853;28;20530;-75
2021/10/25 06:55:40;;;;;;;4.60;4.20;;;1.00;99.90;;;;;;5039462;28;20576;-75
2021/10/25 06:58:07;;;;;;;6.40;5.33;;;1.10;99.90;;;;;;5040664;28;20450;-75
2021/10/25 07:00:33;;;;;;;5.13;4.70;;;1.10;99.90;;;;;;5040735;28;20515;-74
2021/10/25 07:02:59;;;;;;;6.60;5.90;;;1.10;99.90;;;;;;5039161;28;20456;-75
2021/10/25 07:05:25;;;;;;;8.20;5.90;;;1.10;99.90;;;;;;5042659;28;20428;-75
2021/10/25 07:07:51;;;;;;;8.17;7.03;;;1.10;99.90;;;;;;5041801;28;20226;-75
2021/10/25 07:10:17;;;;;;;7.87;7.07;;;1.10;99.90;;;;;;5040261;28;20429;-75
2021/10/25 07:12:44;;;;;;;8.93;7.40;;;1.20;99.90;;;;;;5041070;28;20430;-75
2021/10/25 07:15:11;;;;;;;8.60;6.50;;;1.20;99.90;;;;;;5042519;28;20609;-75
2021/10/25 07:17:48;;;;;;;9.90;6.97;;;1.20;99.90;;;;;;5043303;28;20441;-75
2021/10/25 08:01:04;;;;;;;9.30;7.53;;;2.40;99.90;;;;;;5047321;28;20456;-75
2021/10/25 08:11:44;;;;;;;11.83;6.33;;;3.20;99.90;;;;;;5055118;28;20492;-75
2021/10/25 08:14:12;;;;;;;8.20;5.87;;;3.40;99.90;;;;;;5051699;28;20777;-74
2021/10/25 08:16:51;;;;;;;6.23;5.53;;;3.60;99.90;;;;;;5053333;28;20435;-74
2021/10/25 08:19:26;;;;;;;8.90;6.13;;;3.70;99.90;;;;;;5041110;28;20423;-74
2021/10/25 08:21:59;;;;;;;9.20;6.53;;;3.80;99.90;;;;;;5036407;28;20441;-74
2021/10/25 08:24:32;;;;;;;7.37;5.87;;;4.00;99.90;;;;;;5040718;28;20452;-74
2021/10/25 08:26:58;;;;;;;6.60;5.87;;;4.20;99.90;;;;;;5038814;28;20734;-74
2021/10/25 08:29:24;;;;;;;7.67;6.33;;;4.30;99.90;;;;;;5037034;28;20480;-73
2021/10/25 08:42:13;;;;;;;7.10;6.20;;;4.70;99.90;;;;;;5042223;28;20435;-73
2021/10/25 08:44:40;;;;;;;7.20;5.90;;;4.80;99.90;;;;;;5042908;28;20432;-73
2021/10/25 08:47:07;;;;;;;8.67;6.97;;;5.00;99.90;;;;;;5043620;28;20816;-73
2021/10/25 08:49:33;;;;;;;7.00;6.23;;;5.20;99.90;;;;;;5044531;28;21172;-73
2021/10/25 08:52:00;;;;;;;9.23;6.73;;;5.20;99.90;;;;;;5044873;28;20428;-73
2021/10/25 08:54:27;;;;;;;12.93;7.27;;;5.30;99.90;;;;;;5045697;28;20188;-73
2021/10/25 08:56:53;;;;;;;7.40;6.57;;;5.60;99.90;;;;;;5047115;28;20506;-73
2021/10/25 08:59:20;;;;;;;9.30;7.17;;;5.70;99.90;;;;;;5048265;28;20457;-73
2021/10/25 09:01:47;;;;;;;8.90;6.73;;;5.90;99.90;;;;;;5047840;28;20205;-73
2021/10/25 09:04:13;;;;;;;8.97;8.07;;;6.00;99.90;;;;;;5052823;28;20443;-72
2021/10/25 09:06:55;;;;;;;11.90;6.50;;;6.30;99.90;;;;;;5049679;28;20458;-73
2021/10/25 09:09:22;;;;;;;10.00;6.40;;;6.40;99.90;;;;;;5050448;28;20909;-72
2021/10/25 09:11:58;;;;;;;6.57;5.87;;;6.50;99.90;;;;;;5050944;28;20435;-72
2021/10/25 09:14:24;;;;;;;6.17;5.57;;;6.70;99.90;;;;;;5050715;28;20521;-73
2021/10/25 09:17:03;;;;;;;8.80;6.47;;;6.90;99.90;;;;;;5039432;28;20431;-73
2021/10/25 09:19:31;;;;;;;9.30;5.80;;;7.10;99.90;;;;;;5038947;28;20722;-73
2021/10/25 09:22:04;;;;;;;7.50;6.00;;;7.20;99.90;;;;;;5040147;28;20522;-73
2021/10/25 09:24:30;;;;;;;7.87;6.70;;;7.40;99.90;;;;;;5040898;28;20885;-72
2021/10/25 09:27:01;;;;;;;6.03;5.47;;;7.50;99.90;;;;;;5036742;28;20482;-75
2021/10/25 09:29:28;;;;;;;8.13;5.33;;;7.70;99.90;;;;;;5036116;28;20490;-75
2021/10/25 09:31:56;;;;;;;8.30;7.03;;;7.80;99.90;;;;;;5039451;28;20433;-75
2021/10/25 09:34:40;;;;;;;9.03;6.77;;;8.10;99.90;;;;;;5039019;28;20901;-75
2021/10/25 09:37:14;;;;;;;13.13;6.10;;;8.30;99.90;;;;;;5038681;28;20538;-75
2021/10/25 09:39:50;;;;;;;6.47;5.87;;;8.40;99.90;;;;;;5038665;28;20485;-75
2021/10/25 09:50:52;;;;;;;6.93;6.33;;;9.00;99.90;;;;;;5041545;28;20430;-75
2021/10/25 09:53:29;;;;;;;7.33;5.80;;;9.00;99.90;;;;;;5044517;28;20423;-76
2021/10/25 09:55:54;;;;;;;6.37;5.50;;;9.00;99.90;;;;;;5044557;28;20487;-75
2021/10/25 09:58:22;;;;;;;6.43;5.87;;;9.00;99.90;;;;;;5042196;28;20440;-76
2021/10/25 10:00:48;;;;;;;6.73;6.10;;;9.00;99.90;;;;;;5041926;28;20296;-76
2021/10/25 10:03:15;;;;;;;9.53;6.50;;;9.10;99.90;;;;;;5042758;28;20515;-75
2021/10/25 10:05:43;;;;;;;8.83;6.00;;;9.10;99.90;;;;;;5042576;28;20177;-74
2021/10/25 10:08:09;;;;;;;8.17;5.83;;;9.20;99.90;;;;;;5041684;28;21273;-74
2021/10/25 10:10:36;;;;;;;8.40;5.93;;;9.40;99.90;;;;;;5043053;28;20896;-74
2021/10/25 10:13:04;;;;;;;9.33;5.37;;;9.60;99.90;;;;;;5041346;28;20454;-74
2021/10/25 10:15:31;;;;;;;9.10;6.80;;;9.60;99.90;;;;;;5042608;28;20490;-74
2021/10/25 10:18:07;;;;;;;6.37;5.77;;;9.70;99.90;;;;;;5041190;28;20437;-74
2021/10/25 10:20:37;;;;;;;6.50;5.77;;;9.70;99.90;;;;;;5041756;28;20458;-74
2021/10/25 10:23:09;;;;;;;6.17;5.33;;;9.80;99.90;;;;;;5040734;28;20420;-74
2021/10/25 10:25:50;;;;;;;6.83;6.03;;;9.70;99.90;;;;;;5042130;28;20427;-74
2021/10/25 10:28:18;;;;;;;6.90;5.33;;;9.60;99.90;;;;;;5037963;28;20431;-75
2021/10/25 10:30:59;;;;;;;10.10;6.10;;;9.60;99.90;;;;;;5040812;28;20436;-75
2021/10/25 10:33:51;;;;;;;7.10;4.90;;;9.50;99.90;;;;;;5041922;28;20938;-75
2021/10/25 10:36:30;;;;;;;7.97;6.07;;;9.50;99.90;;;;;;5041642;28;20470;-75
2021/10/25 10:39:12;;;;;;;5.80;5.20;;;9.60;99.90;;;;;;5040913;28;20435;-75
2021/10/25 10:41:51;;;;;;;6.00;5.40;;;9.60;99.90;;;;;;5042884;28;20887;-75
2021/10/25 10:44:24;;;;;;;6.93;4.97;;;9.60;99.90;;;;;;5041504;28;20519;-75
2021/10/25 10:46:57;;;;;;;6.00;5.40;;;9.60;99.90;;;;;;5040608;28;20432;-75
2021/10/25 10:49:28;;;;;;;6.27;5.63;;;9.60;99.90;;;;;;5042476;28;20427;-75
2021/10/25 10:52:23;;;;;;;5.20;4.67;;;9.70;99.90;;;;;;5041959;28;20567;-75
2021/10/25 10:55:05;;;;;;;6.23;4.83;;;9.80;99.90;;;;;;5039933;28;20567;-75
2021/10/25 11:00:34;;;;;;;5.53;4.80;;;10.20;99.90;;;;;;5042110;28;20452;-75
2021/10/25 11:03:04;;;;;;;6.13;4.93;;;10.30;99.90;;;;;;5041308;28;20427;-75
2021/10/25 11:05:34;;;;;;;6.03;4.60;;;10.40;99.90;;;;;;5042083;28;20433;-76
2021/10/25 11:08:21;;;;;;;6.87;5.13;;;10.50;99.90;;;;;;5040839;28;20521;-71
2021/10/25 11:10:49;;;;;;;8.07;5.10;;;10.50;99.90;;;;;;5040205;28;20797;-72
2021/10/25 11:13:20;;;;;;;7.43;4.97;;;10.40;99.90;;;;;;5042191;28;20436;-71
2021/10/25 11:16:08;;;;;;;6.63;4.60;;;10.50;99.90;;;;;;5039201;28;20443;-71
2021/10/25 11:18:37;;;;;;;5.77;5.27;;;10.50;99.90;;;;;;5041181;28;20517;-71
2021/10/25 11:21:21;;;;;;;5.30;4.80;;;10.60;99.90;;;;;;5039148;28;21034;-75
2021/10/25 11:23:54;;;;;;;5.53;4.63;;;10.60;99.90;;;;;;5036100;28;20893;-71
2021/10/25 11:26:26;;;;;;;7.97;5.87;;;10.70;99.90;;;;;;5037380;28;20423;-71
2021/10/25 11:29:08;;;;;;;10.90;5.50;;;10.80;99.90;;;;;;5035935;28;20420;-71
2021/10/25 11:31:37;;;;;;;5.43;4.90;;;10.70;99.90;;;;;;5039313;28;20740;-71
2021/10/25 11:34:11;;;;;;;4.93;4.53;;;10.60;99.90;;;;;;5039080;28;20933;-71
2021/10/25 11:36:48;;;;;;;4.83;4.43;;;10.70;99.90;;;;;;5038610;28;20431;-71
2021/10/25 11:39:22;;;;;;;6.13;5.33;;;10.70;99.90;;;;;;5039612;28;20493;-71
2021/10/25 11:41:48;;;;;;;5.97;5.37;;;10.70;99.90;;;;;;5039800;28;20462;-71
2021/10/25 11:44:15;;;;;;;5.97;4.70;;;10.90;99.90;;;;;;5038517;28;21090;-71
2021/10/25 11:46:42;;;;;;;6.37;4.43;;;10.90;99.90;;;;;;5039181;28;20208;-71
2021/10/25 11:49:10;;;;;;;4.63;4.20;;;10.80;99.90;;;;;;5037517;28;20912;-71
2021/10/25 11:51:49;;;;;;;6.87;4.03;;;10.90;99.90;;;;;;5038561;28;20501;-71
2021/10/25 11:54:15;;;;;;;5.30;4.80;;;10.90;99.90;;;;;;5041700;28;20473;-71
2021/10/25 11:56:55;;;;;;;5.47;4.70;;;10.80;99.90;;;;;;5037695;28;20532;-72
2021/10/25 11:59:22;;;;;;;5.03;4.60;;;10.80;99.90;;;;;;5037339;28;20642;-71
2021/10/25 12:01:49;;;;;;;4.87;4.27;;;10.80;99.90;;;;;;5035907;28;20471;-71
2021/10/25 12:04:18;;;;;;;4.50;4.20;;;10.80;99.90;;;;;;5036012;28;21099;-71
2021/10/25 12:07:04;;;;;;;5.80;5.10;;;10.80;99.90;;;;;;5038080;28;21238;-79
2021/10/25 12:09:32;;;;;;;5.53;5.03;;;10.80;99.90;;;;;;5039775;28;20454;-79
2021/10/25 12:12:06;;;;;;;6.60;4.53;;;10.80;99.90;;;;;;5037307;28;20443;-79
2021/10/25 12:14:36;;;;;;;6.97;6.30;;;10.80;99.90;;;;;;5038968;28;20428;-79
2021/10/25 12:17:02;;;;;;;5.00;4.60;;;10.80;99.90;;;;;;5038374;28;20436;-78
2021/10/25 12:19:29;;;;;;;7.40;5.50;;;10.90;99.90;;;;;;5039750;28;20431;-77
2021/10/25 12:21:54;;;;;;;8.43;4.80;;;10.90;99.90;;;;;;5039267;28;20456;-78
2021/10/25 12:24:22;;;;;;;8.20;4.80;;;11.00;99.90;;;;;;5040337;28;20435;-79
2021/10/25 12:26:59;;;;;;;4.07;3.67;;;11.00;99.90;;;;;;5040701;28;20202;-78
2021/10/25 12:29:25;;;;;;;4.80;4.10;;;11.00;99.90;;;;;;5039244;28;20439;-78
2021/10/25 12:31:52;;;;;;;4.83;3.80;;;11.10;99.90;;;;;;5039866;28;20433;-77
2021/10/25 12:34:18;;;;;;;7.13;4.40;;;11.20;99.90;;;;;;5037240;28;20181;-77
2021/10/25 12:36:45;;;;;;;4.47;4.07;;;11.20;99.90;;;;;;5038757;28;20447;-78
2021/10/25 12:39:18;;;;;;;5.40;3.97;;;11.20;99.90;;;;;;5037058;28;20192;-77
2021/10/25 12:42:01;;;;;;;4.83;3.63;;;11.20;99.90;;;;;;5039697;28;20521;-77
2021/10/25 12:44:32;;;;;;;4.90;4.50;;;11.20;99.90;;;;;;5041125;28;20430;-77
2021/10/25 12:47:15;;;;;;;5.67;4.37;;;11.20;99.90;;;;;;5039301;28;20476;-76
2021/10/25 12:49:49;;;;;;;4.70;4.10;;;11.10;99.90;;;;;;5035303;28;20427;-76
2021/10/25 12:52:16;;;;;;;6.50;4.60;;;11.20;99.90;;;;;;5039180;28;20775;-78
2021/10/25 12:54:42;;;;;;;7.20;4.40;;;11.20;99.90;;;;;;5038335;28;20432;-76
2021/10/25 12:57:18;;;;;;;6.07;4.17;;;11.10;99.90;;;;;;5039764;28;20521;-77
2021/10/25 13:00:11;;;;;;;5.10;4.60;;;11.20;99.90;;;;;;5036511;28;20960;-77
2021/10/25 13:02:47;;;;;;;5.63;4.43;;;11.10;99.90;;;;;;5034818;28;20432;-77
2021/10/25 13:05:20;;;;;;;4.80;4.37;;;11.10;99.90;;;;;;5038430;28;20408;-77
2021/10/25 13:07:52;;;;;;;5.67;4.23;;;11.10;99.90;;;;;;5035871;28;20423;-78
2021/10/25 13:10:21;;;;;;;6.77;4.33;;;11.10;99.90;;;;;;5037371;28;20429;-77
2021/10/25 13:12:49;;;;;;;4.60;4.20;;;11.10;99.90;;;;;;5038107;28;20446;-77
2021/10/25 13:15:15;;;;;;;5.63;4.57;;;11.20;99.90;;;;;;5036403;28;20456;-77
2021/10/25 13:17:41;;;;;;;5.20;4.50;;;11.20;99.90;;;;;;5038400;28;20538;-78
2021/10/25 13:20:09;;;;;;;4.63;4.33;;;11.30;99.90;;;;;;5037738;28;20559;-77
2021/10/25 13:22:35;;;;;;;6.17;4.10;;;11.40;99.90;;;;;;5036900;28;20478;-78
2021/10/25 13:25:00;;;;;;;4.00;3.60;;;11.50;99.90;;;;;;5038387;28;20436;-77
2021/10/25 13:27:26;;;;;;;5.90;4.43;;;11.60;99.90;;;;;;5036381;28;20182;-77
2021/10/25 13:29:52;;;;;;;4.10;3.10;;;11.60;99.90;;;;;;5035211;28;20257;-78
2021/10/25 13:32:19;;;;;;;4.27;3.70;;;11.70;99.90;;;;;;5032284;28;20627;-77
2021/10/25 13:34:45;;;;;;;4.40;4.00;;;11.70;99.90;;;;;;5035735;28;20182;-77
2021/10/25 13:37:10;;;;;;;3.83;3.53;;;11.70;99.90;;;;;;5035131;28;20500;-77
2021/10/25 13:39:36;;;;;;;4.13;3.47;;;11.80;99.90;;;;;;5039827;28;20173;-78
2021/10/25 13:42:02;;;;;;;4.90;4.40;;;11.90;99.90;;;;;;5039590;28;20201;-78
2021/10/25 13:44:27;;;;;;;5.83;3.70;;;11.80;99.90;;;;;;5039524;28;20192;-77
2021/10/25 13:46:53;;;;;;;4.23;3.87;;;11.90;99.90;;;;;;5036343;28;20178;-77
2021/10/25 13:49:19;;;;;;;4.27;3.47;;;11.80;99.90;;;;;;5037532;28;20236;-78
2021/10/25 13:51:45;;;;;;;4.97;3.77;;;11.90;99.90;;;;;;5038739;28;20189;-77
2021/10/25 13:54:11;;;;;;;5.43;3.90;;;11.90;99.90;;;;;;5039764;28;20747;-78
2021/10/25 13:56:37;;;;;;;6.57;3.50;;;11.90;99.90;;;;;;5037169;28;20181;-78
2021/10/25 13:59:04;;;;;;;4.47;4.03;;;11.90;99.90;;;;;;5038328;28;20452;-78
2021/10/25 14:01:31;;;;;;;5.40;3.60;;;11.90;99.90;;;;;;5037531;28;20840;-78
2021/10/25 14:03:58;;;;;;;5.17;3.90;;;11.90;99.90;;;;;;5038444;28;20473;-77
2021/10/25 14:06:27;;;;;;;5.10;3.57;;;11.90;99.90;;;;;;5037270;28;20501;-78
2021/10/25 14:08:53;;;;;;;6.83;3.47;;;11.90;99.90;;;;;;5036130;28;20436;-78
2021/10/25 14:11:22;;;;;;;4.53;3.77;;;11.90;99.90;;;;;;5036754;28;20796;-78
2021/10/25 14:18:42;;;;;;;4.20;3.90;;;11.90;99.90;;;;;;5038218;28;20459;-76
2021/10/25 14:21:08;;;;;;;4.27;3.70;;;12.00;99.90;;;;;;5037478;28;20455;-76
2021/10/25 14:23:34;;;;;;;3.10;2.90;;;12.00;99.90;;;;;;5037695;28;20184;-76
2021/10/25 14:26:01;;;;;;;3.57;3.27;;;12.00;99.90;;;;;;5038397;28;20437;-77
2021/10/25 14:28:29;;;;;;;3.83;3.00;;;12.00;99.90;;;;;;5035510;28;20272;-77
2021/10/25 14:30:57;;;;;;;4.10;3.80;;;12.00;99.90;;;;;;5037629;28;20432;-76
2021/10/25 14:33:23;;;;;;;3.77;3.40;;;11.90;99.90;;;;;;5043046;28;20423;-76
2021/10/25 14:35:49;;;;;;;4.00;3.80;;;11.90;99.90;;;;;;5038269;28;20531;-77
2021/10/25 14:38:37;;;;;;;3.63;3.43;;;11.90;99.90;;;;;;5041703;28;20523;-76
2021/10/25 14:41:17;;;;;;;6.57;3.77;;;11.80;99.90;;;;;;5040402;28;20406;-76
2021/10/25 14:43:48;;;;;;;3.60;3.30;;;11.80;99.90;;;;;;5044169;28;20430;-76
2021/10/25 14:46:22;;;;;;;3.57;3.17;;;11.80;99.90;;;;;;5041358;28;20519;-76